KFCM

Flying Cloud Airport

Minneapolis, Minnesota, USA
METAR KFCM 151453Z VRB06KT 10SM CLR 24/17 A2994 RMK AO2 SLP132 T02440167 50003
Observed Flight Rules
Aug-15 @ 14:53 UTC (8 minutes ago) Visual Flight Rules
Wind Visibility Clouds
Variable at 6 knots 10 miles
  • Clear skies
Temperatures Readings
Current 24°C / 75°F
Dewpoint 17°C / 63°F
Humidity 65%
Altimeter 29.94" Hg
Pressure 1013.2 hPa
Elevation 280
METAR KFCM 151453Z VRB06KT 10SM CLR 24/17 A2994 RMK AO2 SLP132 T02440167 50003
Observed Flight Rules
Aug-15 @ 14:53 UTC
(8 minutes ago)
VFR
Wind Visibility
Variable at 6 knots 10 miles
Clouds
  • Clear skies
Temperature Dewpoint
24°C / 75°F 17°C / 63°F
Humidity Altimeter Pressure
65% 29.94" Hg 1013.2 hPa